Date,TemperatureHighF,TemperatureAvgF,TemperatureLowF,DewpointHighF,DewpointAvgF,DewpointLowF,HumidityHigh,HumidityAvg,HumidityLow,PressureMaxIn,PressureMinIn,WindSpeedMaxMPH,WindSpeedAvgMPH,GustSpeedMaxMPH,PrecipitationSumIn
2013-1-1,24,22,20,23,20,18,95,93,92,0.00,40.00,12,7,22,0.03
2013-1-2,21,20,20,20,12,-100,93,87,92,0.00,40.00,7,6,18,0.06
2013-1-3,23,22,21,21,20,19,95,94,93,0.00,40.00,13,7,24,0.13
2013-1-4,22,20,19,20,19,17,93,93,92,0.00,40.00,4,3,9,0.02
2013-1-5,24,22,20,23,21,18,95,93,92,0.00,40.00,6,5,13,0.15
2013-1-6,22,21,19,20,19,16,93,92,91,0.00,40.00,6,5,9,0.02
2013-1-7,21,20,19,19,18,17,93,92,91,0.00,40.00,7,4,9,0.00
2013-1-8,20,17,12,18,14,9,92,90,87,0.00,40.00,2,0,3,0.00
2013-1-9,18,15,12,15,12,9,90,87,86,0.00,40.00,6,1,7,0.00
2013-1-10,20,19,18,18,17,16,92,90,89,0.00,40.00,8,3,9,0.00
2013-1-11,24,22,20,22,20,18,94,93,92,0.00,40.00,0,0,0,0.00
2013-1-12,25,24,23,24,23,22,95,95,94,0.00,40.00,0,0,0,0.05
2013-1-13,30,27,25,29,27,24,99,97,96,0.00,40.00,0,0,0,0.36
2013-1-14,28,25,17,27,24,11,98,96,89,0.00,40.00,0,0,0,0.18
2013-1-15,19,16,11,11,8,3,87,72,59,0.00,40.00,0,0,0,0.02
2013-1-16,21,18,10,18,14,6,91,84,72,0.00,40.00,0,0,0,0.00
2013-1-17,9,5,2,6,0,-3,85,81,79,0.00,40.00,0,0,0,0.00
2013-1-18,16,10,2,13,6,-3,89,85,79,0.00,40.00,0,0,0,0.00
2013-1-19,24,18,16,23,15,-100,96,90,89,0.00,40.00,2,1,4,0.00
2013-1-20,22,19,21,21,6,-100,94,82,93,0.00,40.00,2,1,2,0.08
2013-1-21,28,26,23,27,25,22,97,96,94,0.00,40.00,2,1,3,0.13
2013-1-22,27,26,25,26,25,24,97,96,96,0.00,40.00,2,1,3,0.11
2013-1-23,26,25,23,25,24,22,96,96,95,0.00,40.00,1,1,2,0.00
2013-1-24,23,20,16,22,18,14,95,92,89,0.00,40.00,1,0,2,0.00
2013-1-25,20,8,-7,19,0,-100,93,81,73,0.00,40.00,0,0,0,0.00
2013-1-26,-7,-11,-14,-14,-18,-22,73,70,69,0.00,40.00,2,1,7,0.00
2013-1-27,-14,-14,-14,-21,-22,-22,69,68,68,0.00,40.00,2,2,2,0.00
2013-1-28,8,2,-4,5,-4,-10,85,79,74,0.00,40.00,1,1,4,0.00
2013-1-29,18,15,11,16,12,8,91,89,86,0.00,40.00,3,2,4,0.00
2013-1-30,26,25,22,25,24,21,96,96,94,0.00,40.00,0,0,0,0.00
2013-1-31,31,25,23,31,24,22,99,96,94,0.00,40.00,1,0,2,0.12
2013-2-1,26,24,23,26,24,22,97,96,95,0.00,40.00,2,1,2,0.01
2013-2-2,26,25,23,25,24,22,97,96,95,0.00,40.00,2,1,2,0.00
2013-2-3,24,24,23,23,23,22,96,95,95,0.00,40.00,1,1,2,0.00
2013-2-4,23,22,21,22,20,19,95,94,93,0.00,40.00,1,1,2,0.00
2013-2-5,25,20,17,24,18,15,95,91,89,0.00,40.00,1,0,1,0.00
2013-2-6,19,16,11,17,13,8,91,89,87,0.00,40.00,1,0,1,0.00
2013-2-7,17,16,15,15,14,13,90,89,89,0.00,40.00,1,1,2,0.00
2013-2-8,21,20,18,19,18,16,93,92,90,0.00,40.00,1,1,2,0.00
2013-2-9,26,23,20,25,22,19,97,95,93,0.00,40.00,11,4,15,0.00
2013-2-10,24,20,18,23,19,16,96,93,91,0.00,40.00,12,4,15,0.00
2013-2-11,19,13,9,17,5,-100,92,83,81,0.00,40.00,6,1,9,0.00
2013-2-12,20,18,16,19,16,13,92,91,89,0.00,40.00,12,7,16,0.00
2013-2-13,20,18,17,18,16,15,92,91,90,0.00,40.00,11,6,15,0.00
2013-2-14,23,22,19,22,20,16,94,93,91,0.00,40.00,13,6,17,0.00
2013-2-15,20,14,5,18,1,-100,92,80,82,0.00,40.00,1,0,2,0.00
2013-2-16,16,9,2,13,-13,-100,90,69,80,0.00,40.00,20,9,21,0.00
2013-2-17,19,15,9,17,13,5,91,89,84,0.00,40.00,21,9,22,0.00
2013-2-18,9,5,2,5,0,-3,84,81,78,0.00,40.00,13,5,17,0.00
2013-2-19,17,13,9,15,9,5,90,86,84,0.00,40.00,19,8,22,0.00
2013-2-20,17,17,17,15,14,14,90,90,90,0.00,40.00,1,1,2,0.00
2013-2-21,20,15,16,17,-4,-100,91,75,89,0.00,40.00,0,0,0,0.00
2013-2-22,12,6,3,9,-14,-100,87,70,80,0.00,40.00,1,0,2,0.00
2013-2-23,10,9,9,6,5,4,85,83,82,0.00,40.00,1,0,2,0.00
2013-2-25,20,19,18,18,17,16,92,91,91,0.00,40.00,29,22,38,0.00
2013-2-26,20,19,18,18,17,16,92,92,91,0.00,40.00,21,16,25,0.00
2013-2-27,21,20,20,20,19,17,93,92,92,0.00,40.00,14,11,20,0.00
2013-2-28,22,18,17,20,16,14,92,91,90,0.00,40.00,11,6,18,0.00
2013-3-1,20,16,15,18,4,-100,92,82,89,0.00,40.00,0,0,0,0.00
2013-3-2,19,17,13,17,14,10,92,90,87,0.00,40.00,0,0,0,0.00
2013-3-3,22,20,19,21,13,-100,94,88,92,0.00,40.00,0,0,0,0.00
2013-3-4,24,23,21,23,21,20,95,94,93,0.00,40.00,0,0,0,0.00
2013-3-5,25,21,18,21,17,3,94,85,45,0.00,40.00,21,7,32,0.09
2013-3-6,24,21,16,20,17,6,93,85,54,0.00,40.00,25,16,41,0.03
2013-3-7,22,21,20,21,20,19,94,94,93,0.00,40.00,25,22,46,0.00
2013-3-9,21,16,19,19,-6,-100,92,74,92,0.00,40.00,12,10,17,0.00
2013-3-11,16,14,10,13,11,7,89,88,86,0.00,40.00,1,0,1,0.00
2013-3-12,17,10,6,14,7,2,88,85,83,0.00,40.00,1,0,2,0.00
2013-3-13,11,7,5,6,3,1,82,81,80,0.00,40.00,12,5,13,0.00
2013-3-14,17,11,5,14,7,1,89,85,82,0.00,40.00,27,15,39,0.00
2013-3-15,23,15,9,20,12,5,87,86,84,0.00,40.00,23,7,32,0.21
2013-3-16,26,15,11,22,12,6,87,85,81,0.00,40.00,10,4,13,0.04
2013-3-17,10,8,5,6,2,0,84,79,74,0.00,40.00,22,13,27,0.01
2013-3-18,11,6,4,4,1,-1,81,78,72,0.00,40.00,15,9,19,0.00
2013-3-19,4,1,-1,-1,-5,-9,79,74,67,0.00,40.00,37,22,44,0.00
2013-3-20,2,-2,-7,-9,-11,-13,72,65,55,0.00,40.00,42,29,52,0.00
2013-3-21,15,6,-1,3,-5,-9,81,61,37,0.00,40.00,32,10,39,0.00
2013-3-22,21,16,8,17,13,3,90,86,78,0.00,40.00,37,25,68,0.00
2013-3-23,28,20,16,20,16,13,90,84,70,0.00,40.00,22,12,43,0.04
2013-3-24,24,20,17,22,18,14,92,90,87,0.00,40.00,18,11,28,0.01
2013-3-25,20,6,-5,18,1,-12,92,81,74,0.00,40.00,24,13,29,0.00
2013-3-26,9,-3,-9,3,-9,-15,77,74,72,0.00,40.00,19,7,25,0.00
2013-3-27,17,5,-3,5,-3,-9,78,71,56,0.00,40.00,15,9,20,0.00
2013-3-28,20,18,15,17,15,11,92,88,84,0.00,40.00,43,38,63,0.00
2013-3-29,23,21,18,20,18,16,93,90,87,0.00,40.00,51,28,72,0.02
2013-3-30,25,21,18,22,18,-100,93,90,85,0.00,40.00,22,9,28,0.03
2013-3-31,35,23,18,30,20,16,92,89,83,0.00,40.00,16,8,28,0.18
2013-4-1,21,19,16,18,16,13,91,89,85,0.00,40.00,17,9,20,0.04
2013-4-2,26,18,14,21,15,11,90,86,82,0.00,40.00,26,10,35,0.00
2013-4-3,23,18,14,18,15,10,91,86,80,0.00,40.00,28,16,34,0.00
2013-4-4,31,19,13,19,10,6,84,66,49,0.00,40.00,12,7,17,0.00
2013-4-5,33,18,12,15,8,4,83,66,41,0.00,40.00,12,6,15,0.00
2013-4-6,24,17,13,16,11,5,87,78,64,0.00,40.00,30,13,37,0.00
2013-4-7,16,10,4,13,1,-13,88,70,37,0.00,40.00,30,15,46,0.00
2013-4-8,20,10,2,16,2,-22,84,72,26,0.00,40.00,12,8,29,0.00
2013-4-9,7,1,-5,0,-5,-12,79,74,70,0.00,40.00,16,10,20,0.00
2013-4-10,12,-3,-9,1,-12,-17,73,64,50,0.00,40.00,18,8,22,0.00
2013-4-11,16,2,-7,-5,-11,-16,78,55,36,0.00,40.00,18,8,29,0.00
2013-4-12,6,1,-4,-4,-7,-10,77,69,59,0.00,40.00,37,22,44,0.00
2013-4-13,12,6,0,-2,-5,-8,78,60,50,0.00,40.00,28,12,35,0.00
2013-4-14,18,12,5,6,-1,-7,64,56,49,0.00,40.00,26,18,32,0.00
2013-4-15,24,18,12,8,4,0,71,54,48,0.00,40.00,7,4,10,0.00
2013-4-16,15,12,8,6,2,-2,77,64,53,0.00,40.00,20,10,27,0.00
2013-4-17,14,8,2,6,0,-5,79,69,64,0.00,40.00,34,19,38,0.00
2013-4-18,24,17,11,10,4,1,72,58,39,0.00,40.00,14,9,22,0.00
2013-4-19,34,20,13,8,4,-2,62,49,34,0.00,40.00,9,4,15,0.01
2013-4-20,22,20,17,16,7,-2,85,59,37,0.00,40.00,28,17,37,0.01
2013-4-21,22,19,17,18,16,13,91,86,80,0.00,40.00,22,16,30,0.00
2013-4-22,28,22,16,24,18,13,92,84,73,0.00,40.00,37,17,44,0.00
2013-4-23,33,27,24,28,24,21,97,87,78,0.00,40.00,35,18,52,0.00
2013-4-24,30,27,25,27,26,24,97,92,85,0.00,40.00,17,7,20,0.00
2013-4-25,18,16,11,14,10,3,86,79,72,0.00,40.00,29,24,39,0.00
2013-4-26,20,14,8,8,3,-5,76,60,41,0.00,40.00,25,14,30,0.00
2013-4-27,21,15,12,11,8,2,79,72,58,0.00,40.00,35,20,42,0.00
2013-4-28,20,13,7,8,2,-4,71,61,54,0.00,40.00,36,26,44,0.00
2013-4-29,35,21,14,15,9,4,79,59,41,0.00,40.00,15,6,23,0.00
2013-4-30,22,19,16,18,16,12,92,87,81,0.00,40.00,25,19,31,0.00
2013-5-1,31,23,18,24,19,15,92,87,77,0.00,40.00,28,14,41,0.00
2013-5-2,29,25,23,24,22,20,94,88,79,0.00,40.00,31,22,45,0.00
2013-5-3,29,27,25,26,25,24,96,94,91,0.00,40.00,36,28,43,0.09
2013-5-4,30,26,22,27,24,20,96,92,87,0.00,40.00,24,9,28,0.40
2013-5-5,37,30,22,34,28,20,93,89,85,0.00,40.00,9,4,14,0.16
2013-5-6,42,27,19,36,23,15,92,83,73,0.00,40.00,8,4,10,0.07
2013-5-7,33,27,22,21,16,12,75,64,47,0.00,40.00,15,5,20,0.03
2013-5-8,48,29,20,24,19,6,96,69,37,0.00,40.00,11,6,13,0.00
2013-5-9,38,32,26,28,18,-1,87,56,28,0.00,40.00,22,15,33,0.03
2013-5-10,40,34,29,30,17,-100,98,54,33,0.00,40.00,22,13,25,0.09
2013-5-11,42,32,29,38,30,-100,99,95,87,0.00,40.00,17,9,20,0.14
2013-5-12,46,36,31,37,33,30,99,90,71,0.00,40.00,14,5,18,0.29
2013-5-13,41,32,25,33,29,21,99,89,74,0.00,40.00,14,6,18,0.26
2013-5-14,27,25,20,22,19,13,89,79,65,0.00,40.00,19,8,24,0.18
2013-5-15,26,22,19,21,16,8,94,76,59,0.00,40.00,32,19,49,0.04
2013-5-16,28,25,23,26,10,-100,94,86,77,0.00,40.00,49,38,68,0.01
2013-5-17,33,27,22,29,21,-100,95,90,83,0.00,40.00,36,13,49,0.38
2013-5-18,22,22,21,20,20,19,93,93,93,0.00,40.00,12,10,16,0.38
2013-5-19,23,21,15,17,15,11,81,78,72,0.00,40.00,10,8,13,0.00
2013-5-20,49,30,19,13,9,0,72,44,19,0.00,40.00,6,4,10,0.23
2013-5-21,45,34,24,24,18,8,72,52,38,0.00,40.00,6,3,8,0.08
2013-5-22,49,36,28,34,27,17,95,69,52,0.00,40.00,7,3,12,0.16
2013-5-23,43,36,31,34,32,31,99,88,70,0.00,40.00,9,4,12,0.04
2013-5-24,52,40,32,38,31,24,99,74,38,0.00,40.00,11,6,13,0.05
2013-5-25,50,39,35,28,24,20,69,55,37,0.00,40.00,23,12,29,0.04
2013-5-26,42,35,31,33,27,20,98,75,57,0.00,40.00,26,13,30,0.00
2013-5-27,44,38,32,34,32,27,99,79,50,0.00,40.00,23,18,32,0.14
2013-5-28,62,52,42,33,30,26,62,43,26,0.00,40.00,10,5,13,0.41
2013-5-29,71,57,50,35,29,23,48,34,25,0.00,40.00,13,4,13,0.15
2013-5-30,65,52,46,36,30,27,69,44,28,0.00,40.00,20,8,23,0.01
2013-5-31,58,47,40,38,35,34,79,66,47,0.00,40.00,7,4,10,0.00
2013-6-1,50,41,37,39,36,34,96,84,67,0.00,40.00,10,4,14,0.00
2013-6-2,42,36,30,36,29,22,97,77,54,0.00,40.00,27,8,32,0.00
2013-6-3,34,33,30,31,30,29,98,90,85,0.00,40.00,26,19,35,0.00
2013-6-4,34,31,29,32,30,28,98,94,89,0.00,40.00,26,16,32,0.00
2013-6-5,45,33,25,36,29,24,97,86,68,0.00,40.00,19,9,20,0.00
2013-6-6,45,35,29,34,28,23,97,78,48,0.00,40.00,23,12,34,0.00
2013-6-7,59,46,39,31,28,24,65,50,32,0.00,40.00,11,5,18,0.00
2013-6-8,52,44,38,36,33,31,76,63,52,0.00,40.00,13,8,17,0.00
2013-6-9,56,49,44,37,35,33,73,58,42,0.00,40.00,13,8,16,0.00
2013-6-10,52,48,46,35,34,31,65,56,47,0.00,40.00,11,8,17,0.00
2013-6-11,51,45,40,37,34,32,78,67,54,0.00,40.00,19,10,22,0.00
2013-6-12,59,51,45,34,32,27,65,49,32,0.00,40.00,10,5,13,0.00
2013-6-13,54,48,37,38,33,27,92,58,43,0.00,40.00,13,4,19,0.00
2013-6-14,53,48,42,38,34,30,83,59,44,0.00,40.00,14,9,18,0.00
2013-6-15,59,54,49,42,35,29,67,50,36,0.00,40.00,9,5,14,0.00
2013-6-16,66,56,50,41,36,31,61,47,30,0.00,40.00,10,5,12,0.06
2013-6-17,65,60,57,45,40,36,56,47,36,0.00,40.00,12,7,17,0.12
2013-6-18,62,50,39,45,36,29,97,59,36,0.00,40.00,29,19,41,0.01
2013-6-19,42,39,36,37,34,31,98,84,64,0.00,40.00,37,23,52,0.00
2013-6-20,45,43,42,34,32,30,69,66,62,0.00,40.00,24,22,29,0.00
2013-6-22,44,40,38,35,30,23,91,67,43,0.00,40.00,35,23,45,0.00
2013-6-23,40,37,34,37,33,26,97,86,57,0.00,40.00,35,18,50,0.00
2013-6-24,54,45,38,42,38,35,97,78,59,0.00,40.00,17,8,25,0.00
2013-6-25,63,56,48,42,38,34,79,52,37,0.00,40.00,10,5,14,0.10
2013-6-26,59,52,45,46,40,37,92,66,48,0.00,40.00,34,16,46,0.07
2013-6-27,59,50,44,48,45,41,96,83,66,0.00,40.00,18,6,24,0.00
2013-6-28,52,46,43,45,43,42,99,90,78,0.00,40.00,15,5,22,0.00
2013-6-29,51,45,41,49,44,41,100,96,89,0.00,40.00,12,7,17,0.00
2013-6-30,43,40,35,43,40,35,100,98,94,0.00,40.00,39,23,44,0.00
2013-7-1,35,34,33,35,34,32,99,97,94,0.00,40.00,45,33,66,0.00
2013-7-2,36,34,32,35,33,32,99,95,86,0.00,40.00,33,19,55,0.18
2013-7-3,36,34,34,34,34,33,99,97,93,0.00,40.00,31,21,34,0.03
2013-7-4,36,35,33,34,34,33,99,97,94,0.00,40.00,45,33,57,0.15
2013-7-5,37,36,35,36,34,34,98,95,92,0.00,40.00,37,25,42,0.37
2013-7-6,39,37,36,37,36,36,98,97,94,0.00,40.00,34,23,50,0.87
2013-7-7,38,36,35,36,35,33,98,95,89,0.00,40.00,46,27,76,1.15
2013-7-8,49,39,33,35,33,32,99,80,54,0.00,40.00,9,4,18,0.32
2013-7-9,47,41,37,40,35,32,93,79,56,0.00,40.00,12,5,13,0.02
2013-7-10,47,43,39,40,36,-100,92,79,67,0.00,40.00,19,14,24,0.00
2013-7-11,58,49,44,41,40,38,87,71,50,0.00,40.00,15,6,24,0.27
2013-7-12,58,52,47,44,39,35,81,63,46,0.00,40.00,12,5,16,0.10
2013-7-13,59,54,51,40,38,36,66,54,45,0.00,40.00,7,3,10,0.00
2013-7-14,56,50,46,47,40,35,99,69,46,0.00,40.00,11,4,13,0.00
2013-7-15,58,52,47,47,40,32,97,65,44,0.00,40.00,5,3,10,0.00
2013-7-16,52,49,45,47,45,44,99,90,79,0.00,40.00,13,7,15,0.00
2013-7-17,51,48,45,49,47,44,100,96,87,0.00,40.00,17,8,22,0.00
2013-7-18,62,51,46,50,47,43,100,87,65,0.00,40.00,21,11,28,0.00
2013-7-19,54,48,43,44,42,39,91,82,66,0.00,40.00,17,10,27,0.00
2013-7-20,45,42,40,40,36,-100,97,81,70,0.00,40.00,28,18,36,0.00
2013-7-21,48,44,40,38,37,35,85,77,65,0.00,40.00,26,19,32,0.00
2013-7-22,57,50,43,41,39,37,84,67,53,0.00,40.00,18,9,26,0.00
2013-7-23,61,55,51,43,40,38,66,56,48,0.00,40.00,8,5,11,0.02
2013-7-24,65,58,53,44,38,30,69,49,28,0.00,40.00,9,4,11,0.07
2013-7-25,63,56,52,50,45,40,80,67,52,0.00,40.00,9,4,11,0.01
2013-7-26,57,52,48,49,47,44,99,84,68,0.00,40.00,9,4,10,0.00
2013-7-27,59,53,48,52,48,45,99,83,68,0.00,40.00,6,3,7,0.00
2013-7-28,67,59,48,50,42,37,98,57,36,0.00,40.00,11,4,15,0.05
2013-7-29,66,60,54,53,45,39,96,58,42,0.00,40.00,5,3,7,0.05
2013-7-30,65,58,53,54,52,43,99,82,52,0.00,40.00,5,3,7,0.02
2013-7-31,62,56,48,53,49,43,99,80,56,0.00,40.00,10,2,10,0.00
2013-8-1,58,49,40,47,39,32,97,68,40,0.00,40.00,28,13,34,0.00
2013-8-2,43,41,39,42,39,35,98,94,79,0.00,40.00,40,26,59,0.00
2013-8-3,42,41,39,42,40,39,99,98,97,0.00,40.00,53,29,81,0.49
2013-8-4,41,40,38,40,39,38,99,98,94,0.00,40.00,29,17,39,0.23
2013-8-5,41,40,39,41,40,39,99,98,96,0.00,40.00,27,18,43,0.69
2013-8-6,42,40,39,41,40,39,99,98,95,0.00,40.00,54,36,75,1.02
2013-8-7,41,40,39,41,40,38,100,98,95,0.00,40.00,47,30,63,1.92
2013-8-8,41,37,34,41,37,33,99,97,94,0.00,40.00,47,29,65,0.42
2013-8-9,42,39,35,41,39,35,100,99,98,0.00,40.00,61,34,88,1.04
2013-8-10,48,41,38,41,37,29,100,86,52,0.00,40.00,35,16,39,0.24
2013-8-11,44,41,39,43,39,32,98,94,69,0.00,40.00,23,12,29,1.91
2013-8-12,46,44,42,44,43,40,99,97,93,0.00,40.00,33,20,48,0.96
2013-8-13,48,44,40,43,39,-100,98,88,79,0.00,40.00,17,8,28,0.13
2013-8-14,49,42,40,42,35,-100,99,84,69,0.00,40.00,9,5,19,0.03
2013-8-15,53,44,39,39,27,-100,99,66,49,0.00,40.00,14,5,19,0.13
2013-8-16,45,40,38,39,34,-100,98,84,58,0.00,40.00,37,18,45,0.02
2013-8-17,43,40,39,41,38,-100,99,96,89,0.00,40.00,37,20,48,0.04
2013-8-18,44,42,40,43,40,38,98,95,86,0.00,40.00,15,7,18,0.30
2013-8-19,41,40,40,41,35,-100,99,95,85,0.00,40.00,29,13,35,0.14
2013-8-20,42,40,37,41,37,-100,98,95,87,0.00,40.00,32,21,44,0.23
2013-8-21,40,39,37,38,38,37,99,95,91,0.00,40.00,32,23,44,0.07
2013-8-22,42,41,39,41,39,38,97,94,90,0.00,40.00,25,17,33,0.06
2013-8-23,45,42,40,42,41,40,99,95,85,0.00,40.00,18,9,23,0.11
2013-8-24,42,38,36,40,35,-100,99,90,68,0.00,40.00,29,20,34,0.02
2013-8-25,50,44,39,32,28,24,74,54,35,0.00,40.00,18,8,22,0.27
2013-8-26,49,43,41,36,33,31,80,69,53,0.00,40.00,12,6,14,0.03
2013-8-27,50,43,41,39,36,35,80,76,64,0.00,40.00,9,6,12,0.00
2013-8-28,43,40,38,39,37,30,98,89,62,0.00,40.00,32,14,58,0.60
2013-8-29,41,39,38,40,38,36,99,96,89,0.00,40.00,56,29,72,2.77
2013-8-30,49,44,39,42,39,36,99,83,74,0.00,40.00,19,7,22,0.36
2013-8-31,44,41,39,38,33,-100,86,75,50,0.00,40.00,13,6,17,0.01
2013-9-1,47,42,39,40,37,33,98,83,69,0.00,40.00,37,9,41,0.00
2013-9-2,41,38,35,41,38,34,99,98,95,0.00,40.00,59,44,81,0.06
2013-9-3,41,38,35,40,37,35,99,98,97,0.00,40.00,60,38,82,0.04
2013-9-4,38,37,35,37,35,33,99,93,84,0.00,40.00,29,16,60,0.44
2013-9-5,35,34,33,35,33,31,98,96,90,0.00,40.00,44,30,54,0.05
2013-9-6,44,38,34,43,36,30,99,95,75,0.00,40.00,46,30,69,0.95
2013-9-7,40,38,36,39,36,-100,99,95,91,0.00,40.00,46,24,68,0.64
2013-9-8,41,36,35,39,35,34,99,95,75,0.00,40.00,38,20,59,0.20
2013-9-9,41,37,35,40,37,34,99,98,94,0.00,40.00,61,38,91,1.50
2013-9-10,41,39,38,40,39,38,99,98,96,0.00,40.00,39,25,58,2.52
2013-9-11,44,38,33,40,36,32,99,95,81,0.00,40.00,18,10,28,1.58
2013-9-12,36,34,32,36,34,32,99,99,98,0.00,40.00,43,26,60,0.04
2013-9-13,39,36,34,38,35,33,99,97,94,0.00,40.00,45,29,68,0.40
2013-9-14,39,37,35,39,36,-100,99,98,96,0.00,40.00,15,8,21,0.20
2013-9-15,41,39,37,38,35,30,99,88,80,0.00,40.00,14,8,17,0.14
2013-9-16,38,36,34,32,28,25,87,73,65,0.00,40.00,15,7,18,0.01
2013-9-17,37,34,32,34,32,29,99,92,79,0.00,40.00,9,4,12,0.00
2013-9-18,33,33,32,33,32,31,99,98,94,0.00,40.00,11,6,13,0.00
2013-9-19,32,28,29,31,19,-100,98,89,95,0.00,40.00,26,7,30,0.00
2013-9-20,29,24,20,21,14,4,93,68,34,0.00,40.00,30,16,33,0.00
2013-9-21,31,28,26,29,22,-100,96,83,59,0.00,40.00,36,16,40,0.00
2013-9-22,24,24,24,23,22,22,94,94,93,0.00,40.00,16,16,19,0.00
2013-9-24,34,31,19,34,30,17,99,96,90,0.00,40.00,57,28,72,0.37
2013-9-25,35,31,27,35,31,26,98,98,96,0.00,40.00,57,35,86,0.43
2013-9-26,39,33,31,35,32,31,99,96,82,0.00,40.00,36,12,49,0.31
2013-9-27,32,31,28,32,30,27,99,98,97,0.00,40.00,45,26,70,0.16
2013-9-28,32,30,29,32,28,-100,99,97,96,0.00,40.00,28,18,32,0.00
2013-9-29,28,26,24,27,24,22,97,95,94,0.00,40.00,28,24,32,0.00
2013-9-30,27,25,23,26,24,21,96,94,92,0.00,40.00,25,20,32,0.00
2013-10-1,32,31,30,31,30,29,98,97,94,0.00,40.00,22,16,32,0.00
2013-10-2,32,30,29,31,30,29,98,98,97,0.00,40.00,25,19,40,0.04
2013-10-3,31,30,30,30,30,29,98,98,97,0.00,40.00,35,23,45,0.02
2013-10-4,33,32,31,32,31,30,99,98,96,0.00,40.00,11,6,13,0.18
2013-10-5,33,30,26,32,30,25,99,96,93,0.00,40.00,26,13,53,0.01
2013-10-6,29,26,24,28,20,-100,97,91,93,0.00,40.00,0,0,0,0.01
2013-10-7,35,27,23,32,25,21,97,93,88,0.00,40.00,1,0,3,0.00
2013-10-8,36,31,25,34,29,19,98,95,75,0.00,40.00,34,11,47,0.32
2013-10-9,27,25,22,25,20,13,96,82,68,0.00,40.00,37,25,48,0.05
2013-10-10,30,28,22,29,20,7,96,76,40,0.00,40.00,38,24,45,0.00
2013-10-11,31,30,30,31,30,29,98,97,96,0.00,40.00,32,17,44,0.16
2013-10-12,32,30,29,32,29,-100,98,97,97,0.00,40.00,0,0,0,0.42
2013-10-13,32,30,28,31,30,27,99,98,97,0.00,40.00,0,0,0,0.18
2013-10-14,30,29,27,30,28,27,98,97,96,0.00,40.00,0,0,0,0.07
2013-10-15,35,32,29,34,32,29,99,98,97,0.00,40.00,49,18,64,0.64
2013-10-16,34,32,30,34,31,29,99,98,96,0.00,40.00,47,18,68,0.20
2013-10-17,32,31,30,31,30,29,99,98,96,0.00,40.00,0,0,0,0.01
2013-10-18,32,30,27,32,29,27,99,97,94,0.00,40.00,43,12,57,0.12
2013-10-19,32,29,27,32,28,-100,98,95,94,0.00,40.00,31,10,41,0.39
2013-10-20,29,27,26,29,26,24,97,95,92,0.00,40.00,0,0,0,0.04
2013-10-21,27,26,25,25,24,23,95,93,90,0.00,40.00,0,0,0,0.00
2013-10-22,26,25,21,25,23,19,95,92,87,0.00,40.00,0,0,0,0.00
2013-10-23,29,22,20,20,14,0,93,72,33,0.00,40.00,0,0,0,0.00
2013-10-24,30,25,24,28,14,-100,93,77,34,0.00,40.00,0,0,0,0.53
2013-10-25,31,26,23,28,22,14,96,83,57,0.00,40.00,16,4,17,0.41
2013-10-26,36,28,24,25,16,-100,97,67,21,0.00,40.00,46,18,52,0.15
2013-10-27,35,31,27,35,29,22,98,94,79,0.00,40.00,65,46,90,0.42
2013-10-28,35,32,28,35,30,-100,99,94,77,0.00,40.00,48,27,84,1.67
2013-10-29,29,26,26,27,11,-100,96,80,77,0.00,40.00,37,21,45,0.06
2013-10-30,30,28,27,29,27,26,97,96,96,0.00,40.00,30,19,41,0.00
2013-10-31,29,28,27,29,27,26,97,96,96,0.00,40.00,6,0,11,0.00
2013-11-1,29,27,25,28,26,24,97,96,95,0.00,40.00,0,0,0,0.09
2013-11-2,27,24,22,25,22,-100,96,93,92,0.00,40.00,0,0,0,0.03
2013-11-3,29,26,25,28,20,-100,97,91,95,0.00,40.00,0,0,0,0.20
2013-11-4,29,27,26,28,26,25,97,96,95,0.00,40.00,0,0,0,0.08
2013-11-5,27,23,17,26,21,15,96,93,90,0.00,40.00,0,0,0,0.04
2013-11-6,22,17,13,19,14,9,90,88,82,0.00,40.00,0,0,0,0.00
2013-11-7,25,23,21,23,21,17,94,92,82,0.00,40.00,18,9,21,0.00
2013-11-8,22,17,15,20,15,12,93,89,85,0.00,40.00,16,10,19,0.00
2013-11-9,31,27,19,30,23,-100,97,90,77,0.00,40.00,25,12,40,0.21
2013-11-10,29,27,20,28,26,17,96,95,91,0.00,40.00,35,20,48,0.15
2013-11-11,20,19,19,17,17,16,91,91,91,0.00,40.00,8,7,13,0.15
2013-11-12,18,9,4,16,5,0,88,84,82,0.00,40.00,14,9,15,0.00
2013-11-13,37,28,18,34,25,15,98,89,80,0.00,40.00,27,10,32,0.36
2013-11-14,37,29,17,34,23,9,98,80,60,0.00,40.00,40,28,50,0.19
2013-11-15,18,16,10,12,8,4,89,72,56,0.00,40.00,36,23,44,0.01
2013-11-16,10,5,1,7,-2,-100,85,77,67,0.00,40.00,50,39,60,0.00
2013-11-17,1,-3,-5,-4,-9,-11,79,76,73,0.00,40.00,48,27,57,0.00
2013-11-18,-5,-7,-9,-11,-13,-16,75,73,71,0.00,40.00,23,14,26,0.00
2013-11-19,-1,-8,-9,-7,-14,-16,77,73,70,0.00,40.00,22,13,25,0.00
2013-11-20,4,-1,-4,-1,-6,-9,80,77,76,0.00,40.00,12,7,15,0.00
2013-11-21,30,17,4,29,14,-1,96,88,80,0.00,40.00,55,27,81,0.01
2013-11-22,31,23,8,31,21,4,98,93,81,0.00,40.00,31,3,60,0.14
2013-11-23,19,12,6,16,6,-100,89,81,73,0.00,40.00,0,0,0,0.01
2013-11-24,23,22,19,21,20,16,93,92,89,0.00,40.00,0,0,0,0.00
2013-11-25,24,22,20,23,19,16,94,90,83,0.00,40.00,0,0,0,0.00
2013-11-26,26,25,23,25,23,21,95,94,93,0.00,40.00,0,0,0,0.18
2013-11-27,25,20,12,23,18,9,94,91,86,0.00,40.00,0,0,0,0.08
2013-11-28,12,-2,-7,9,-7,-13,86,77,74,0.00,40.00,0,0,0,0.00
2013-11-29,-7,-8,-10,-13,-14,-17,74,73,72,0.00,40.00,0,0,0,0.00
2013-11-30,2,-6,-9,-4,-13,-100,78,73,71,0.00,40.00,0,0,0,0.00
2013-12-1,29,14,2,5,-1,-6,71,52,30,0.00,40.00,0,0,0,0.00
2013-12-2,35,31,27,4,-1,-12,36,26,15,0.00,40.00,1,0,2,0.11
2013-12-3,32,29,26,-8,-11,-15,20,17,12,0.00,40.00,2,1,6,0.11
2013-12-4,36,30,17,34,18,-3,98,66,29,0.00,40.00,9,4,10,0.14
2013-12-5,40,37,32,36,34,31,99,91,84,0.00,40.00,13,8,21,0.24
2013-12-6,39,37,34,34,33,32,92,86,78,0.00,40.00,15,10,22,0.02
2013-12-7,38,34,32,33,30,-100,98,88,53,0.00,40.00,11,5,12,0.00
2013-12-8,41,37,18,23,8,-5,93,33,15,0.00,40.00,13,7,24,0.00
2013-12-9,28,25,18,26,23,16,95,92,79,0.00,40.00,13,5,17,0.00
2013-12-10,26,25,22,24,22,21,95,91,86,0.00,40.00,19,9,27,0.00
2013-12-11,16,5,-1,13,1,-7,89,81,77,0.00,40.00,0,0,2,0.00
2013-12-12,5,-1,-4,1,-6,-9,82,77,75,0.00,40.00,2,0,0,0.00
2013-12-13,22,11,4,20,8,0,92,85,81,0.00,40.00,2,1,4,0.07
2013-12-14,22,10,2,20,5,-100,92,83,79,0.00,40.00,2,1,4,0.17
2013-12-15,3,0,-2,-1,-6,-8,80,78,77,0.00,40.00,3,1,4,0.00
2013-12-16,6,2,-2,2,-3,-7,82,79,77,0.00,40.00,2,1,4,0.00
2013-12-17,12,1,-4,9,-4,-10,85,78,75,0.00,40.00,2,1,2,0.00
2013-12-18,18,15,12,13,7,-9,88,75,30,0.00,40.00,39,22,57,0.23
2013-12-19,20,16,14,15,13,11,88,86,79,0.00,40.00,33,9,57,0.04
2013-12-20,32,23,20,30,19,13,92,84,75,0.00,40.00,46,13,60,0.34
2013-12-21,27,24,23,25,15,-100,94,86,91,0.00,40.00,19,3,27,0.03
2013-12-22,23,19,8,22,17,5,93,90,84,0.00,40.00,0,0,0,0.09
2013-12-23,8,1,-2,5,-4,-7,84,79,77,0.00,40.00,0,0,0,0.00
2013-12-24,13,8,-1,10,4,-6,87,83,78,0.00,40.00,8,4,10,0.00
2013-12-25,22,19,13,20,16,10,92,90,87,0.00,40.00,5,1,9,0.00
2013-12-26,21,16,12,19,13,9,92,89,86,0.00,40.00,2,1,4,0.00
2013-12-27,25,19,13,23,16,7,93,85,72,0.00,40.00,22,9,25,0.09
2013-12-28,26,23,22,24,20,-100,94,92,92,0.00,40.00,9,3,20,0.18
2013-12-29,26,24,23,22,21,19,93,89,79,0.00,40.00,17,4,17,0.03
2013-12-30,24,22,21,22,20,19,93,92,91,0.00,40.00,8,2,10,0.03
2013-12-31,25,24,23,23,22,21,94,93,93,0.00,40.00,12,4,16,0.21
2014-1-1,24,23,22,23,21,20,94,93,92,0.00,40.00,8,6,15,0.87
2014-1-2,25,22,21,23,20,19,93,92,91,0.00,40.00,1,0,4,0.00